sensor_id;sensor_type;location;lat;lon;timestamp;P1;durP1;ratioP1;P2;durP2;ratioP2
33459;SDS011;19795;53.160;6.612;2022-12-10T07:56:54;101.88;;;44.15;;
33459;SDS011;19795;53.160;6.612;2022-12-10T07:59:20;105.50;;;42.90;;
33459;SDS011;19795;53.160;6.612;2022-12-10T08:01:45;106.85;;;41.95;;
33459;SDS011;19795;53.160;6.612;2022-12-10T08:04:11;109.03;;;39.55;;
33459;SDS011;19795;53.160;6.612;2022-12-10T08:06:36;98.22;;;40.78;;
33459;SDS011;19795;53.160;6.612;2022-12-10T08:09:02;106.20;;;41.45;;
33459;SDS011;19795;53.160;6.612;2022-12-10T08:11:28;114.43;;;41.88;;
33459;SDS011;19795;53.160;6.612;2022-12-10T08:13:54;92.05;;;39.13;;
33459;SDS011;19795;53.160;6.612;2022-12-10T08:16:20;85.60;;;39.78;;
33459;SDS011;19795;53.160;6.612;2022-12-10T08:18:48;92.90;;;41.63;;
33459;SDS011;19795;53.160;6.612;2022-12-10T08:21:18;97.53;;;44.80;;
33459;SDS011;19795;53.160;6.612;2022-12-10T08:23:45;106.45;;;44.25;;
33459;SDS011;19795;53.160;6.612;2022-12-10T08:26:15;91.47;;;41.60;;
33459;SDS011;19795;53.160;6.612;2022-12-10T08:28:43;105.63;;;45.67;;
33459;SDS011;19795;53.160;6.612;2022-12-10T08:31:10;102.95;;;41.30;;
33459;SDS011;19795;53.160;6.612;2022-12-10T08:33:37;102.60;;;44.90;;
33459;SDS011;19795;53.160;6.612;2022-12-10T08:36:04;88.22;;;42.05;;
33459;SDS011;19795;53.160;6.612;2022-12-10T08:38:30;92.30;;;40.78;;
33459;SDS011;19795;53.160;6.612;2022-12-10T08:40:57;96.78;;;42.65;;
33459;SDS011;19795;53.160;6.612;2022-12-10T08:43:23;90.60;;;42.38;;
33459;SDS011;19795;53.160;6.612;2022-12-10T08:45:48;83.05;;;39.40;;
33459;SDS011;19795;53.160;6.612;2022-12-10T08:48:14;97.55;;;41.72;;
33459;SDS011;19795;53.160;6.612;2022-12-10T08:50:40;103.43;;;44.55;;
33459;SDS011;19795;53.160;6.612;2022-12-10T08:53:05;101.65;;;40.78;;
33459;SDS011;19795;53.160;6.612;2022-12-10T08:55:31;84.95;;;38.20;;
33459;SDS011;19795;53.160;6.612;2022-12-10T08:57:57;121.03;;;39.30;;
33459;SDS011;19795;53.160;6.612;2022-12-10T09:00:23;88.00;;;36.35;;
33459;SDS011;19795;53.160;6.612;2022-12-10T09:02:50;80.63;;;35.88;;
33459;SDS011;19795;53.160;6.612;2022-12-10T09:05:16;89.40;;;35.58;;
33459;SDS011;19795;53.160;6.612;2022-12-10T09:07:42;88.93;;;37.90;;
33459;SDS011;19795;53.160;6.612;2022-12-10T09:10:09;80.35;;;36.47;;
33459;SDS011;19795;53.160;6.612;2022-12-10T09:12:36;76.30;;;38.30;;
33459;SDS011;19795;53.160;6.612;2022-12-10T09:15:01;84.20;;;38.47;;
33459;SDS011;19795;53.160;6.612;2022-12-10T09:17:27;94.82;;;37.28;;
33459;SDS011;19795;53.160;6.612;2022-12-10T09:19:53;79.20;;;37.53;;
33459;SDS011;19795;53.160;6.612;2022-12-10T09:22:18;82.97;;;38.70;;
33459;SDS011;19795;53.160;6.612;2022-12-10T09:24:47;82.63;;;39.13;;
33459;SDS011;19795;53.160;6.612;2022-12-10T09:27:12;80.32;;;37.72;;
33459;SDS011;19795;53.160;6.612;2022-12-10T09:29:38;81.72;;;37.72;;
33459;SDS011;19795;53.160;6.612;2022-12-10T09:32:04;73.35;;;35.95;;
33459;SDS011;19795;53.160;6.612;2022-12-10T09:34:29;84.75;;;37.85;;
33459;SDS011;19795;53.160;6.612;2022-12-10T09:36:55;88.63;;;37.28;;
33459;SDS011;19795;53.160;6.612;2022-12-10T09:39:20;87.32;;;40.17;;
33459;SDS011;19795;53.160;6.612;2022-12-10T09:47:12;87.70;;;39.33;;
33459;SDS011;19795;53.160;6.612;2022-12-10T09:52:43;90.68;;;40.10;;
33459;SDS011;19795;53.160;6.612;2022-12-10T09:55:14;90.65;;;39.88;;
33459;SDS011;19795;53.160;6.612;2022-12-10T09:57:43;89.63;;;40.33;;
33459;SDS011;19795;53.160;6.612;2022-12-10T10:02:52;87.80;;;41.63;;
33459;SDS011;19795;53.160;6.612;2022-12-10T10:05:32;85.30;;;38.50;;
33459;SDS011;19795;53.160;6.612;2022-12-10T10:08:04;91.85;;;44.40;;
33459;SDS011;19795;53.160;6.612;2022-12-10T10:10:39;89.93;;;39.75;;
33459;SDS011;19795;53.160;6.612;2022-12-10T10:15:35;90.55;;;38.10;;
33459;SDS011;19795;53.160;6.612;2022-12-10T10:18:15;91.72;;;40.63;;
33459;SDS011;19795;53.160;6.612;2022-12-10T10:20:57;79.05;;;36.70;;
33459;SDS011;19795;53.160;6.612;2022-12-10T10:23:23;80.25;;;39.13;;
33459;SDS011;19795;53.160;6.612;2022-12-10T10:25:49;79.28;;;37.65;;
33459;SDS011;19795;53.160;6.612;2022-12-10T10:28:20;76.00;;;37.72;;
33459;SDS011;19795;53.160;6.612;2022-12-10T10:30:47;82.75;;;39.22;;
33459;SDS011;19795;53.160;6.612;2022-12-10T10:33:15;76.78;;;36.67;;
33459;SDS011;19795;53.160;6.612;2022-12-10T10:35:42;74.35;;;36.03;;
33459;SDS011;19795;53.160;6.612;2022-12-10T10:38:22;86.13;;;38.00;;
33459;SDS011;19795;53.160;6.612;2022-12-10T10:40:58;78.35;;;37.90;;
33459;SDS011;19795;53.160;6.612;2022-12-10T10:43:28;83.95;;;38.03;;
33459;SDS011;19795;53.160;6.612;2022-12-10T10:46:17;82.60;;;37.65;;
33459;SDS011;19795;53.160;6.612;2022-12-10T10:48:46;77.00;;;34.67;;
33459;SDS011;19795;53.160;6.612;2022-12-10T10:51:22;76.18;;;36.22;;
33459;SDS011;19795;53.160;6.612;2022-12-10T10:53:54;80.00;;;36.72;;
33459;SDS011;19795;53.160;6.612;2022-12-10T10:56:30;80.22;;;37.08;;
33459;SDS011;19795;53.160;6.612;2022-12-10T11:02:24;72.30;;;34.65;;
33459;SDS011;19795;53.160;6.612;2022-12-10T11:04:49;85.35;;;38.63;;
33459;SDS011;19795;53.160;6.612;2022-12-10T11:07:38;76.15;;;37.13;;
33459;SDS011;19795;53.160;6.612;2022-12-10T11:10:19;76.38;;;35.95;;
33459;SDS011;19795;53.160;6.612;2022-12-10T11:13:18;74.85;;;34.78;;
33459;SDS011;19795;53.160;6.612;2022-12-10T11:15:44;69.90;;;34.90;;
33459;SDS011;19795;53.160;6.612;2022-12-10T11:18:24;67.22;;;33.05;;
33459;SDS011;19795;53.160;6.612;2022-12-10T11:21:05;73.07;;;33.83;;
33459;SDS011;19795;53.160;6.612;2022-12-10T11:23:42;70.72;;;34.75;;
33459;SDS011;19795;53.160;6.612;2022-12-10T11:29:17;72.10;;;32.90;;
33459;SDS011;19795;53.160;6.612;2022-12-10T11:47:55;60.88;;;29.95;;
33459;SDS011;19795;53.160;6.612;2022-12-10T11:56:14;60.53;;;30.95;;
33459;SDS011;19795;53.160;6.612;2022-12-10T12:04:15;49.42;;;24.00;;
33459;SDS011;19795;53.160;6.612;2022-12-10T12:14:43;47.80;;;23.45;;
33459;SDS011;19795;53.160;6.612;2022-12-10T12:19:47;54.50;;;26.83;;
33459;SDS011;19795;53.160;6.612;2022-12-10T12:22:28;51.70;;;26.30;;
33459;SDS011;19795;53.160;6.612;2022-12-10T12:24:59;48.47;;;25.58;;
33459;SDS011;19795;53.160;6.612;2022-12-10T12:27:40;47.45;;;25.48;;
33459;SDS011;19795;53.160;6.612;2022-12-10T12:30:13;54.67;;;25.15;;
33459;SDS011;19795;53.160;6.612;2022-12-10T12:35:42;52.22;;;25.52;;
33459;SDS011;19795;53.160;6.612;2022-12-10T12:43:26;53.92;;;25.98;;
33459;SDS011;19795;53.160;6.612;2022-12-10T12:46:02;55.92;;;27.13;;
33459;SDS011;19795;53.160;6.612;2022-12-10T12:48:42;51.55;;;26.75;;
33459;SDS011;19795;53.160;6.612;2022-12-10T12:51:40;49.75;;;23.25;;
33459;SDS011;19795;53.160;6.612;2022-12-10T12:54:10;54.28;;;25.45;;
33459;SDS011;19795;53.160;6.612;2022-12-10T13:01:57;51.78;;;24.55;;
33459;SDS011;19795;53.160;6.612;2022-12-10T13:04:32;51.50;;;23.95;;
33459;SDS011;19795;53.160;6.612;2022-12-10T13:09:46;52.22;;;24.10;;
33459;SDS011;19795;53.160;6.612;2022-12-10T13:12:30;54.13;;;26.05;;
33459;SDS011;19795;53.160;6.612;2022-12-10T13:17:33;49.38;;;23.95;;
33459;SDS011;19795;53.160;6.612;2022-12-10T13:23:00;55.97;;;26.60;;
33459;SDS011;19795;53.160;6.612;2022-12-10T13:28:15;56.35;;;26.50;;
33459;SDS011;19795;53.160;6.612;2022-12-10T13:31:06;61.17;;;28.07;;
33459;SDS011;19795;53.160;6.612;2022-12-10T13:41:30;57.20;;;26.80;;
33459;SDS011;19795;53.160;6.612;2022-12-10T13:44:36;66.55;;;28.95;;
33459;SDS011;19795;53.160;6.612;2022-12-10T13:47:27;70.57;;;28.70;;
33459;SDS011;19795;53.160;6.612;2022-12-10T13:50:00;66.13;;;28.58;;
33459;SDS011;19795;53.160;6.612;2022-12-10T13:52:30;72.75;;;31.30;;
33459;SDS011;19795;53.160;6.612;2022-12-10T13:55:07;61.97;;;26.88;;
33459;SDS011;19795;53.160;6.612;2022-12-10T13:57:44;67.28;;;29.27;;
33459;SDS011;19795;53.160;6.612;2022-12-10T14:00:39;68.40;;;30.02;;
33459;SDS011;19795;53.160;6.612;2022-12-10T14:06:20;70.68;;;30.30;;
33459;SDS011;19795;53.160;6.612;2022-12-10T14:08:54;71.10;;;31.40;;
33459;SDS011;19795;53.160;6.612;2022-12-10T14:11:22;68.78;;;28.48;;
33459;SDS011;19795;53.160;6.612;2022-12-10T14:13:53;63.55;;;27.52;;
33459;SDS011;19795;53.160;6.612;2022-12-10T14:16:23;55.38;;;26.45;;
33459;SDS011;19795;53.160;6.612;2022-12-10T14:18:56;59.83;;;25.77;;
33459;SDS011;19795;53.160;6.612;2022-12-10T14:21:26;51.05;;;23.92;;
33459;SDS011;19795;53.160;6.612;2022-12-10T14:23:56;57.50;;;24.48;;
33459;SDS011;19795;53.160;6.612;2022-12-10T14:26:30;58.50;;;24.10;;
33459;SDS011;19795;53.160;6.612;2022-12-10T14:29:16;64.40;;;25.88;;
33459;SDS011;19795;53.160;6.612;2022-12-10T14:31:46;55.42;;;24.38;;
33459;SDS011;19795;53.160;6.612;2022-12-10T14:34:14;62.10;;;27.27;;
33459;SDS011;19795;53.160;6.612;2022-12-10T14:36:47;64.55;;;27.63;;
33459;SDS011;19795;53.160;6.612;2022-12-10T14:39:16;61.35;;;26.75;;
33459;SDS011;19795;53.160;6.612;2022-12-10T14:41:44;66.50;;;26.73;;
33459;SDS011;19795;53.160;6.612;2022-12-10T14:44:12;71.90;;;26.60;;
33459;SDS011;19795;53.160;6.612;2022-12-10T14:46:41;65.93;;;26.30;;
33459;SDS011;19795;53.160;6.612;2022-12-10T14:49:28;71.38;;;27.63;;
33459;SDS011;19795;53.160;6.612;2022-12-10T14:51:55;65.55;;;25.08;;
33459;SDS011;19795;53.160;6.612;2022-12-10T14:54:25;65.95;;;26.58;;
33459;SDS011;19795;53.160;6.612;2022-12-10T14:56:58;66.47;;;26.45;;
33459;SDS011;19795;53.160;6.612;2022-12-10T14:59:32;69.93;;;28.20;;
33459;SDS011;19795;53.160;6.612;2022-12-10T15:02:24;69.28;;;26.95;;
33459;SDS011;19795;53.160;6.612;2022-12-10T15:04:53;72.30;;;27.70;;
33459;SDS011;19795;53.160;6.612;2022-12-10T15:07:21;74.15;;;28.67;;
33459;SDS011;19795;53.160;6.612;2022-12-10T15:09:49;65.40;;;27.35;;
33459;SDS011;19795;53.160;6.612;2022-12-10T15:12:32;70.55;;;28.90;;
33459;SDS011;19795;53.160;6.612;2022-12-10T15:15:21;83.07;;;30.70;;
33459;SDS011;19795;53.160;6.612;2022-12-10T15:21:09;77.45;;;30.55;;
33459;SDS011;19795;53.160;6.612;2022-12-10T15:25:51;77.63;;;28.67;;
33459;SDS011;19795;53.160;6.612;2022-12-10T15:28:38;70.45;;;27.85;;
33459;SDS011;19795;53.160;6.612;2022-12-10T15:31:12;82.40;;;28.35;;
33459;SDS011;19795;53.160;6.612;2022-12-10T15:33:52;72.45;;;27.25;;
33459;SDS011;19795;53.160;6.612;2022-12-10T15:41:54;60.92;;;20.65;;
33459;SDS011;19795;53.160;6.612;2022-12-10T15:49:42;83.47;;;28.17;;
33459;SDS011;19795;53.160;6.612;2022-12-10T15:52:11;81.97;;;29.67;;
33459;SDS011;19795;53.160;6.612;2022-12-10T15:54:40;90.35;;;29.85;;
33459;SDS011;19795;53.160;6.612;2022-12-10T15:57:21;100.53;;;29.80;;
33459;SDS011;19795;53.160;6.612;2022-12-10T15:59:54;106.60;;;29.33;;
33459;SDS011;19795;53.160;6.612;2022-12-10T16:02:38;79.05;;;28.23;;
33459;SDS011;19795;53.160;6.612;2022-12-10T16:05:13;83.18;;;29.70;;
33459;SDS011;19795;53.160;6.612;2022-12-10T16:07:42;87.65;;;29.55;;
33459;SDS011;19795;53.160;6.612;2022-12-10T16:10:12;100.78;;;30.77;;
33459;SDS011;19795;53.160;6.612;2022-12-10T16:12:55;88.50;;;29.50;;
33459;SDS011;19795;53.160;6.612;2022-12-10T16:15:28;82.93;;;30.27;;
33459;SDS011;19795;53.160;6.612;2022-12-10T16:17:58;78.13;;;28.50;;
33459;SDS011;19795;53.160;6.612;2022-12-10T16:20:24;99.18;;;31.67;;
33459;SDS011;19795;53.160;6.612;2022-12-10T16:22:55;100.63;;;32.85;;
33459;SDS011;19795;53.160;6.612;2022-12-10T16:25:22;101.10;;;31.80;;
33459;SDS011;19795;53.160;6.612;2022-12-10T16:27:51;77.85;;;30.23;;
33459;SDS011;19795;53.160;6.612;2022-12-10T16:32:45;97.25;;;31.88;;
33459;SDS011;19795;53.160;6.612;2022-12-10T16:35:12;94.70;;;34.78;;
33459;SDS011;19795;53.160;6.612;2022-12-10T16:37:41;86.43;;;30.55;;
33459;SDS011;19795;53.160;6.612;2022-12-10T16:40:09;82.20;;;31.02;;
33459;SDS011;19795;53.160;6.612;2022-12-10T16:42:36;75.93;;;30.92;;
33459;SDS011;19795;53.160;6.612;2022-12-10T16:45:01;80.90;;;30.67;;
33459;SDS011;19795;53.160;6.612;2022-12-10T16:47:30;89.25;;;31.83;;
33459;SDS011;19795;53.160;6.612;2022-12-10T16:49:56;83.40;;;31.48;;
33459;SDS011;19795;53.160;6.612;2022-12-10T16:52:22;102.22;;;34.50;;
33459;SDS011;19795;53.160;6.612;2022-12-10T16:54:48;92.80;;;34.20;;
33459;SDS011;19795;53.160;6.612;2022-12-10T16:57:14;88.35;;;33.10;;
33459;SDS011;19795;53.160;6.612;2022-12-10T16:59:40;96.78;;;33.83;;
33459;SDS011;19795;53.160;6.612;2022-12-10T17:02:12;84.63;;;30.33;;
33459;SDS011;19795;53.160;6.612;2022-12-10T17:07:05;80.13;;;30.17;;
33459;SDS011;19795;53.160;6.612;2022-12-10T17:09:31;93.22;;;30.55;;
33459;SDS011;19795;53.160;6.612;2022-12-10T17:11:57;92.93;;;32.58;;
33459;SDS011;19795;53.160;6.612;2022-12-10T17:14:36;90.63;;;32.55;;
33459;SDS011;19795;53.160;6.612;2022-12-10T17:17:07;93.03;;;32.42;;
33459;SDS011;19795;53.160;6.612;2022-12-10T17:19:36;99.53;;;34.95;;
33459;SDS011;19795;53.160;6.612;2022-12-10T17:22:03;94.07;;;36.45;;
33459;SDS011;19795;53.160;6.612;2022-12-10T17:24:30;89.15;;;34.58;;
33459;SDS011;19795;53.160;6.612;2022-12-10T17:26:58;101.07;;;32.80;;
33459;SDS011;19795;53.160;6.612;2022-12-10T17:29:29;107.90;;;34.95;;
33459;SDS011;19795;53.160;6.612;2022-12-10T17:32:03;112.32;;;36.70;;
33459;SDS011;19795;53.160;6.612;2022-12-10T17:34:30;104.68;;;36.95;;
33459;SDS011;19795;53.160;6.612;2022-12-10T17:36:56;99.68;;;35.13;;
33459;SDS011;19795;53.160;6.612;2022-12-10T17:39:25;106.43;;;35.30;;
33459;SDS011;19795;53.160;6.612;2022-12-10T17:41:53;100.55;;;37.33;;
33459;SDS011;19795;53.160;6.612;2022-12-10T17:44:19;126.40;;;40.97;;
33459;SDS011;19795;53.160;6.612;2022-12-10T17:46:46;110.40;;;38.75;;
33459;SDS011;19795;53.160;6.612;2022-12-10T17:49:12;102.53;;;37.20;;
33459;SDS011;19795;53.160;6.612;2022-12-10T17:51:39;89.72;;;32.35;;
33459;SDS011;19795;53.160;6.612;2022-12-10T17:54:05;94.20;;;32.63;;
33459;SDS011;19795;53.160;6.612;2022-12-10T17:56:31;83.10;;;30.45;;
33459;SDS011;19795;53.160;6.612;2022-12-10T17:58:57;85.15;;;33.22;;
33459;SDS011;19795;53.160;6.612;2022-12-10T18:01:22;105.70;;;32.35;;
33459;SDS011;19795;53.160;6.612;2022-12-10T18:03:51;90.28;;;32.50;;
33459;SDS011;19795;53.160;6.612;2022-12-10T18:06:19;88.93;;;32.28;;
33459;SDS011;19795;53.160;6.612;2022-12-10T18:08:47;96.53;;;34.47;;
33459;SDS011;19795;53.160;6.612;2022-12-10T18:11:14;96.07;;;34.97;;
33459;SDS011;19795;53.160;6.612;2022-12-10T18:13:42;100.78;;;32.85;;
33459;SDS011;19795;53.160;6.612;2022-12-10T18:16:12;96.43;;;33.25;;
33459;SDS011;19795;53.160;6.612;2022-12-10T18:18:39;97.03;;;34.50;;
33459;SDS011;19795;53.160;6.612;2022-12-10T18:21:06;91.45;;;33.83;;
33459;SDS011;19795;53.160;6.612;2022-12-10T18:23:32;108.55;;;35.33;;
33459;SDS011;19795;53.160;6.612;2022-12-10T18:25:58;93.90;;;30.30;;
33459;SDS011;19795;53.160;6.612;2022-12-10T18:30:53;113.15;;;35.85;;
33459;SDS011;19795;53.160;6.612;2022-12-10T18:33:20;94.65;;;32.30;;
33459;SDS011;19795;53.160;6.612;2022-12-10T18:35:46;93.05;;;33.92;;
33459;SDS011;19795;53.160;6.612;2022-12-10T18:38:13;97.95;;;34.65;;
33459;SDS011;19795;53.160;6.612;2022-12-10T18:40:40;98.32;;;31.50;;
33459;SDS011;19795;53.160;6.612;2022-12-10T18:43:06;92.38;;;33.42;;
33459;SDS011;19795;53.160;6.612;2022-12-10T18:45:31;86.05;;;32.30;;
33459;SDS011;19795;53.160;6.612;2022-12-10T18:47:57;105.63;;;32.30;;
33459;SDS011;19795;53.160;6.612;2022-12-10T18:50:24;90.70;;;32.78;;
33459;SDS011;19795;53.160;6.612;2022-12-10T18:52:52;101.07;;;32.47;;
33459;SDS011;19795;53.160;6.612;2022-12-10T18:55:19;90.85;;;32.55;;
33459;SDS011;19795;53.160;6.612;2022-12-10T18:57:46;101.40;;;32.08;;
33459;SDS011;19795;53.160;6.612;2022-12-10T19:00:13;85.80;;;30.92;;
33459;SDS011;19795;53.160;6.612;2022-12-10T19:02:44;85.90;;;32.33;;
33459;SDS011;19795;53.160;6.612;2022-12-10T19:05:10;93.28;;;31.58;;
33459;SDS011;19795;53.160;6.612;2022-12-10T19:07:36;84.57;;;29.90;;
33459;SDS011;19795;53.160;6.612;2022-12-10T19:10:03;81.10;;;29.90;;
33459;SDS011;19795;53.160;6.612;2022-12-10T19:12:35;79.70;;;29.40;;
33459;SDS011;19795;53.160;6.612;2022-12-10T19:15:01;77.20;;;27.15;;
33459;SDS011;19795;53.160;6.612;2022-12-10T19:17:29;78.68;;;32.35;;
33459;SDS011;19795;53.160;6.612;2022-12-10T19:19:55;101.35;;;35.50;;
33459;SDS011;19795;53.160;6.612;2022-12-10T19:22:20;95.18;;;31.60;;
33459;SDS011;19795;53.160;6.612;2022-12-10T19:24:46;88.18;;;30.13;;
33459;SDS011;19795;53.160;6.612;2022-12-10T19:27:12;75.43;;;30.75;;
33459;SDS011;19795;53.160;6.612;2022-12-10T19:29:37;79.05;;;30.08;;
33459;SDS011;19795;53.160;6.612;2022-12-10T19:32:05;172.23;;;38.33;;
33459;SDS011;19795;53.160;6.612;2022-12-10T19:34:31;96.32;;;31.38;;
33459;SDS011;19795;53.160;6.612;2022-12-10T19:36:58;86.90;;;31.50;;
33459;SDS011;19795;53.160;6.612;2022-12-10T19:39:24;83.65;;;30.10;;
33459;SDS011;19795;53.160;6.612;2022-12-10T19:41:50;83.70;;;31.60;;
33459;SDS011;19795;53.160;6.612;2022-12-10T19:44:17;82.18;;;29.98;;
33459;SDS011;19795;53.160;6.612;2022-12-10T19:46:43;93.75;;;31.48;;
33459;SDS011;19795;53.160;6.612;2022-12-10T19:49:12;89.55;;;31.48;;
33459;SDS011;19795;53.160;6.612;2022-12-10T19:51:39;79.05;;;30.92;;
33459;SDS011;19795;53.160;6.612;2022-12-10T19:54:06;80.20;;;31.33;;
33459;SDS011;19795;53.160;6.612;2022-12-10T19:56:32;82.00;;;32.75;;
33459;SDS011;19795;53.160;6.612;2022-12-10T19:58:59;80.55;;;31.58;;
33459;SDS011;19795;53.160;6.612;2022-12-10T20:01:34;82.13;;;29.77;;
33459;SDS011;19795;53.160;6.612;2022-12-10T20:03:59;81.93;;;30.48;;
33459;SDS011;19795;53.160;6.612;2022-12-10T20:06:26;75.75;;;32.83;;
33459;SDS011;19795;53.160;6.612;2022-12-10T20:08:57;79.80;;;29.17;;
33459;SDS011;19795;53.160;6.612;2022-12-10T20:11:24;68.53;;;26.38;;
33459;SDS011;19795;53.160;6.612;2022-12-10T20:13:50;66.78;;;28.65;;
33459;SDS011;19795;53.160;6.612;2022-12-10T20:16:17;75.93;;;28.50;;
33459;SDS011;19795;53.160;6.612;2022-12-10T20:18:45;72.07;;;29.15;;
33459;SDS011;19795;53.160;6.612;2022-12-10T20:21:12;67.25;;;28.30;;
33459;SDS011;19795;53.160;6.612;2022-12-10T20:23:39;67.53;;;28.33;;
33459;SDS011;19795;53.160;6.612;2022-12-10T20:26:13;70.97;;;29.33;;
33459;SDS011;19795;53.160;6.612;2022-12-10T20:28:42;67.72;;;29.27;;
33459;SDS011;19795;53.160;6.612;2022-12-10T20:31:08;76.15;;;27.98;;
33459;SDS011;19795;53.160;6.612;2022-12-10T20:33:34;64.43;;;28.33;;
33459;SDS011;19795;53.160;6.612;2022-12-10T20:36:00;67.20;;;26.45;;
33459;SDS011;19795;53.160;6.612;2022-12-10T20:38:25;64.97;;;28.23;;
33459;SDS011;19795;53.160;6.612;2022-12-10T20:40:51;68.63;;;28.75;;
33459;SDS011;19795;53.160;6.612;2022-12-10T20:43:17;67.22;;;27.48;;
33459;SDS011;19795;53.160;6.612;2022-12-10T20:45:42;67.85;;;31.40;;
33459;SDS011;19795;53.160;6.612;2022-12-10T20:48:08;61.97;;;28.05;;
33459;SDS011;19795;53.160;6.612;2022-12-10T20:50:35;63.35;;;28.42;;
33459;SDS011;19795;53.160;6.612;2022-12-10T20:53:00;73.53;;;29.98;;
33459;SDS011;19795;53.160;6.612;2022-12-10T20:55:26;70.72;;;29.60;;
33459;SDS011;19795;53.160;6.612;2022-12-10T20:57:52;68.22;;;26.60;;
33459;SDS011;19795;53.160;6.612;2022-12-10T21:00:19;70.20;;;29.67;;
33459;SDS011;19795;53.160;6.612;2022-12-10T21:02:46;68.22;;;29.52;;
33459;SDS011;19795;53.160;6.612;2022-12-10T21:05:12;62.65;;;29.20;;
33459;SDS011;19795;53.160;6.612;2022-12-10T21:07:38;63.05;;;27.17;;
33459;SDS011;19795;53.160;6.612;2022-12-10T21:10:04;57.75;;;25.13;;
33459;SDS011;19795;53.160;6.612;2022-12-10T21:12:30;60.15;;;28.25;;
33459;SDS011;19795;53.160;6.612;2022-12-10T21:14:56;58.88;;;28.58;;
33459;SDS011;19795;53.160;6.612;2022-12-10T21:17:21;58.35;;;26.40;;
33459;SDS011;19795;53.160;6.612;2022-12-10T21:19:47;56.95;;;26.88;;
33459;SDS011;19795;53.160;6.612;2022-12-10T21:22:13;60.25;;;26.60;;
33459;SDS011;19795;53.160;6.612;2022-12-10T21:24:40;67.65;;;30.17;;
33459;SDS011;19795;53.160;6.612;2022-12-10T21:27:06;59.00;;;28.52;;
33459;SDS011;19795;53.160;6.612;2022-12-10T21:29:32;59.10;;;29.08;;
33459;SDS011;19795;53.160;6.612;2022-12-10T21:31:57;55.55;;;25.80;;
33459;SDS011;19795;53.160;6.612;2022-12-10T21:34:23;53.50;;;26.48;;
33459;SDS011;19795;53.160;6.612;2022-12-10T21:36:49;59.30;;;25.02;;
33459;SDS011;19795;53.160;6.612;2022-12-10T21:39:14;54.20;;;25.35;;
33459;SDS011;19795;53.160;6.612;2022-12-10T21:41:40;58.28;;;25.58;;
33459;SDS011;19795;53.160;6.612;2022-12-10T21:44:24;52.03;;;24.83;;
33459;SDS011;19795;53.160;6.612;2022-12-10T21:46:50;45.40;;;25.25;;
33459;SDS011;19795;53.160;6.612;2022-12-10T21:49:15;52.50;;;26.15;;
33459;SDS011;19795;53.160;6.612;2022-12-10T21:51:41;58.83;;;25.90;;
33459;SDS011;19795;53.160;6.612;2022-12-10T21:54:07;53.95;;;25.55;;
33459;SDS011;19795;53.160;6.612;2022-12-10T21:56:33;49.92;;;25.30;;
33459;SDS011;19795;53.160;6.612;2022-12-10T21:58:59;48.92;;;23.70;;
33459;SDS011;19795;53.160;6.612;2022-12-10T22:01:25;50.70;;;23.20;;
33459;SDS011;19795;53.160;6.612;2022-12-10T22:03:50;48.72;;;23.23;;
33459;SDS011;19795;53.160;6.612;2022-12-10T22:06:20;50.35;;;23.45;;
33459;SDS011;19795;53.160;6.612;2022-12-10T22:08:48;48.80;;;22.20;;
33459;SDS011;19795;53.160;6.612;2022-12-10T22:11:14;47.90;;;22.70;;
33459;SDS011;19795;53.160;6.612;2022-12-10T22:13:39;57.42;;;24.10;;
33459;SDS011;19795;53.160;6.612;2022-12-10T22:16:07;56.08;;;24.52;;
33459;SDS011;19795;53.160;6.612;2022-12-10T22:18:33;49.38;;;22.77;;
33459;SDS011;19795;53.160;6.612;2022-12-10T22:21:00;50.80;;;24.40;;
33459;SDS011;19795;53.160;6.612;2022-12-10T22:23:26;49.67;;;24.77;;
33459;SDS011;19795;53.160;6.612;2022-12-10T22:25:52;46.72;;;23.05;;
33459;SDS011;19795;53.160;6.612;2022-12-10T22:28:18;56.83;;;24.15;;
33459;SDS011;19795;53.160;6.612;2022-12-10T22:30:44;50.53;;;23.85;;
33459;SDS011;19795;53.160;6.612;2022-12-10T22:33:10;54.40;;;23.20;;
33459;SDS011;19795;53.160;6.612;2022-12-10T22:35:36;49.22;;;23.10;;
33459;SDS011;19795;53.160;6.612;2022-12-10T22:38:03;51.95;;;22.42;;
33459;SDS011;19795;53.160;6.612;2022-12-10T22:40:29;49.03;;;23.15;;
33459;SDS011;19795;53.160;6.612;2022-12-10T22:42:55;53.95;;;22.55;;
33459;SDS011;19795;53.160;6.612;2022-12-10T22:45:21;55.05;;;23.63;;
33459;SDS011;19795;53.160;6.612;2022-12-10T22:47:47;57.08;;;25.00;;
33459;SDS011;19795;53.160;6.612;2022-12-10T22:50:12;55.40;;;25.08;;
33459;SDS011;19795;53.160;6.612;2022-12-10T22:52:38;52.88;;;24.42;;
33459;SDS011;19795;53.160;6.612;2022-12-10T22:55:04;54.75;;;25.45;;
33459;SDS011;19795;53.160;6.612;2022-12-10T22:57:30;51.90;;;23.25;;
33459;SDS011;19795;53.160;6.612;2022-12-10T22:59:56;55.75;;;24.65;;
